createdAt,value
2022-10-20T00:02:26.888Z,1.20
2022-10-20T00:04:54.304Z,1.73
2022-10-20T00:07:21.732Z,1.60
2022-10-20T00:09:49.029Z,1.30
2022-10-20T00:12:16.255Z,1.58
2022-10-20T00:14:43.679Z,1.50
2022-10-20T00:17:11.041Z,1.05
2022-10-20T00:19:38.356Z,1.25
2022-10-20T00:22:05.627Z,0.88
2022-10-20T00:24:32.955Z,1.10
2022-10-20T00:27:00.246Z,1.20
2022-10-20T00:29:27.571Z,1.30
2022-10-20T00:31:54.778Z,1.00
2022-10-20T00:34:22.053Z,1.20
2022-10-20T00:36:51.339Z,1.33
2022-10-20T00:39:18.935Z,1.40
2022-10-20T00:41:46.215Z,1.38
2022-10-20T00:44:32.070Z,1.35
2022-10-20T00:46:59.590Z,1.20
2022-10-20T00:49:27.073Z,1.40
2022-10-20T00:51:55.032Z,1.60
2022-10-20T00:54:24.561Z,1.20
2022-10-20T00:56:52.526Z,1.40
2022-10-20T00:59:21.000Z,1.33
2022-10-20T01:01:48.805Z,1.15
2022-10-20T01:04:16.272Z,1.33
2022-10-20T01:06:43.563Z,1.33
2022-10-20T01:09:10.934Z,1.40
2022-10-20T01:11:56.999Z,1.20
2022-10-20T01:14:42.972Z,1.10
2022-10-20T01:17:16.368Z,0.90
2022-10-20T01:19:43.551Z,1.10
2022-10-20T01:22:29.592Z,0.95
2022-10-20T01:25:03.772Z,0.93
2022-10-20T01:27:32.570Z,0.80
2022-10-20T01:30:06.229Z,0.90
2022-10-20T01:32:42.755Z,0.90
2022-10-20T01:35:09.931Z,0.80
2022-10-20T01:37:54.620Z,0.90
2022-10-20T01:40:25.156Z,1.10
2022-10-20T01:42:53.407Z,0.75
2022-10-20T01:45:22.441Z,0.90
2022-10-20T01:47:51.218Z,0.80
2022-10-20T01:50:19.999Z,0.90
2022-10-20T01:52:47.340Z,0.90
2022-10-20T01:55:15.353Z,0.98
2022-10-20T01:58:01.313Z,0.73
2022-10-20T02:00:28.672Z,0.90
2022-10-20T02:03:08.095Z,1.10
2022-10-20T02:05:47.674Z,0.85
2022-10-20T02:08:44.897Z,0.80
2022-10-20T02:11:21.738Z,1.00
2022-10-20T02:13:49.646Z,0.75
2022-10-20T02:16:23.658Z,0.80
2022-10-20T02:18:51.025Z,0.93
2022-10-20T02:21:18.568Z,0.90
2022-10-20T02:23:46.613Z,0.70
2022-10-20T02:26:15.481Z,0.73
2022-10-20T02:28:45.724Z,0.95
2022-10-20T02:31:12.933Z,0.98
2022-10-20T02:33:40.939Z,0.90
2022-10-20T02:36:12.946Z,1.30
2022-10-20T02:38:40.211Z,1.02
2022-10-20T02:41:07.390Z,0.80
2022-10-20T02:43:34.741Z,1.08
2022-10-20T02:46:01.970Z,1.00
2022-10-20T02:48:29.277Z,1.00
2022-10-20T02:50:56.590Z,1.33
2022-10-20T02:53:23.805Z,0.95
2022-10-20T02:55:51.126Z,0.80
2022-10-20T02:58:18.321Z,0.68
2022-10-20T03:00:45.519Z,1.00
2022-10-20T03:03:12.737Z,0.95
2022-10-20T03:05:41.845Z,1.08
2022-10-20T03:08:09.071Z,0.80
2022-10-20T03:10:37.529Z,1.10
2022-10-20T03:13:04.960Z,1.00
2022-10-20T03:15:32.316Z,0.85
2022-10-20T03:17:59.509Z,0.80
2022-10-20T03:20:26.862Z,1.00
2022-10-20T03:22:54.219Z,0.80
2022-10-20T03:25:21.533Z,1.10
2022-10-20T03:27:48.968Z,0.90
2022-10-20T03:30:16.240Z,0.80
2022-10-20T03:32:43.464Z,0.80
2022-10-20T03:35:10.825Z,0.80
2022-10-20T03:37:38.108Z,1.20
2022-10-20T03:40:05.658Z,1.30
2022-10-20T03:42:33.177Z,1.73
2022-10-20T03:45:00.665Z,1.35
2022-10-20T03:47:27.895Z,1.50
2022-10-20T03:49:55.181Z,1.13
2022-10-20T03:52:22.436Z,1.10
2022-10-20T03:54:49.686Z,1.00
2022-10-20T03:57:16.910Z,0.90
2022-10-20T03:59:44.158Z,0.75
2022-10-20T04:02:20.430Z,1.02
2022-10-20T04:04:47.615Z,0.82
2022-10-20T04:07:14.852Z,0.88
2022-10-20T04:09:42.092Z,0.70
2022-10-20T04:12:09.323Z,0.82
2022-10-20T04:14:36.557Z,0.85
2022-10-20T04:17:03.797Z,0.80
2022-10-20T04:19:30.996Z,0.90
2022-10-20T04:21:58.200Z,0.98
2022-10-20T04:24:25.434Z,0.80
2022-10-20T04:26:52.635Z,1.00
2022-10-20T04:29:19.849Z,0.70
2022-10-20T04:31:49.176Z,0.60
2022-10-20T04:34:16.615Z,0.80
2022-10-20T04:36:43.847Z,0.98
2022-10-20T04:39:11.127Z,0.70
2022-10-20T04:41:38.324Z,0.80
2022-10-20T04:44:05.625Z,0.65
2022-10-20T04:46:32.876Z,0.88
2022-10-20T04:49:00.129Z,1.02
2022-10-20T04:51:27.593Z,0.70
2022-10-20T04:53:54.993Z,0.80
2022-10-20T04:56:23.145Z,0.98
2022-10-20T04:58:51.127Z,0.90
2022-10-20T05:01:18.851Z,0.93
2022-10-20T05:03:46.143Z,0.82
2022-10-20T05:06:13.486Z,0.85
2022-10-20T05:08:41.423Z,1.10
2022-10-20T05:11:08.733Z,0.70
2022-10-20T05:13:36.134Z,1.00
2022-10-20T05:16:03.648Z,0.80
2022-10-20T05:18:30.845Z,0.80
2022-10-20T05:21:08.252Z,0.80
2022-10-20T05:23:36.987Z,1.10
2022-10-20T05:26:05.000Z,0.90
2022-10-20T05:28:32.917Z,0.95
2022-10-20T05:31:04.109Z,0.70
2022-10-20T05:33:31.581Z,0.90
2022-10-20T05:35:58.844Z,0.70
2022-10-20T05:38:26.202Z,0.90
2022-10-20T05:40:53.376Z,0.80
2022-10-20T05:43:20.689Z,0.70
2022-10-20T05:45:53.913Z,0.88
2022-10-20T05:48:21.220Z,1.02
2022-10-20T05:50:48.420Z,0.98
2022-10-20T05:53:15.657Z,0.80
2022-10-20T05:55:42.834Z,0.90
2022-10-20T05:58:10.179Z,0.73
2022-10-20T06:00:42.034Z,0.75
2022-10-20T06:03:09.563Z,0.80
2022-10-20T06:05:36.730Z,1.10
2022-10-20T06:08:03.962Z,1.30
2022-10-20T06:10:31.476Z,1.38
2022-10-20T06:12:58.643Z,1.33
2022-10-20T06:15:25.881Z,1.40
2022-10-20T06:17:53.077Z,1.20
2022-10-20T06:20:20.737Z,1.20
2022-10-20T06:22:48.008Z,1.20
2022-10-20T06:25:15.349Z,1.05
2022-10-20T06:27:44.531Z,1.10
2022-10-20T06:30:12.007Z,0.95
2022-10-20T06:32:39.618Z,1.17
2022-10-20T06:35:07.090Z,1.00
2022-10-20T06:37:34.538Z,0.90
2022-10-20T06:40:02.120Z,0.70
2022-10-20T06:42:29.468Z,1.10
2022-10-20T06:44:56.684Z,0.90
2022-10-20T06:47:23.920Z,0.90
2022-10-20T06:49:51.116Z,0.88
2022-10-20T06:52:18.513Z,0.90
2022-10-20T06:54:45.714Z,0.90
2022-10-20T06:57:13.039Z,0.70
2022-10-20T06:59:40.417Z,0.70
2022-10-20T07:02:07.638Z,1.10
2022-10-20T07:04:34.899Z,1.30
2022-10-20T07:07:02.138Z,1.58
2022-10-20T07:09:29.449Z,1.35
2022-10-20T07:11:56.693Z,1.13
2022-10-20T07:14:24.115Z,1.02
2022-10-20T07:16:51.532Z,1.30
2022-10-20T07:19:18.736Z,1.38
2022-10-20T07:21:46.128Z,1.40
2022-10-20T07:24:13.833Z,1.40
2022-10-20T07:26:41.763Z,1.38
2022-10-20T07:29:09.432Z,1.45
2022-10-20T07:31:38.243Z,1.98
2022-10-20T07:34:19.853Z,2.40
2022-10-20T07:36:52.154Z,2.35
2022-10-20T07:39:19.554Z,2.67
2022-10-20T07:41:48.092Z,2.78
2022-10-20T07:44:16.104Z,2.92
2022-10-20T07:46:43.400Z,2.75
2022-10-20T07:49:39.301Z,2.33
2022-10-20T07:51:58.042Z,2.47
2022-10-20T07:54:25.459Z,2.03
2022-10-20T07:56:52.974Z,2.13
2022-10-20T07:59:20.220Z,2.55
2022-10-20T08:01:47.791Z,3.35
2022-10-20T08:04:15.083Z,2.55
2022-10-20T08:06:42.627Z,2.00
2022-10-20T08:09:09.875Z,1.80
2022-10-20T08:11:37.165Z,1.65
2022-10-20T08:14:04.644Z,1.90
2022-10-20T08:19:21.881Z,1.30
2022-10-20T08:21:49.138Z,2.40
2022-10-20T08:24:16.405Z,2.88
2022-10-20T08:26:43.647Z,2.72
2022-10-20T08:29:12.267Z,2.70
2022-10-20T08:31:40.073Z,2.45
2022-10-20T08:34:08.153Z,1.73
2022-10-20T08:36:37.248Z,1.50
2022-10-20T08:39:06.246Z,1.50
2022-10-20T08:42:06.471Z,1.95
2022-10-20T08:44:32.394Z,1.80
2022-10-20T08:47:01.936Z,1.75
2022-10-20T08:49:31.594Z,1.40
2022-10-20T08:51:59.030Z,1.58
2022-10-20T08:54:26.280Z,1.50
2022-10-20T08:56:53.567Z,1.75
2022-10-20T08:59:29.289Z,2.10
2022-10-20T09:01:57.312Z,2.40
2022-10-20T09:04:33.392Z,2.58
2022-10-20T09:07:05.427Z,1.83
2022-10-20T09:09:34.248Z,1.70
2022-10-20T09:12:06.557Z,1.30
2022-10-20T09:14:35.432Z,1.42
2022-10-20T09:17:02.696Z,1.60
2022-10-20T09:19:30.289Z,1.60
2022-10-20T09:21:59.111Z,1.33
2022-10-20T09:24:30.251Z,2.20
2022-10-20T09:26:59.813Z,2.05
2022-10-20T09:29:38.013Z,2.30
2022-10-20T09:32:44.569Z,2.03
2022-10-20T09:35:13.292Z,2.35
2022-10-20T09:37:40.870Z,1.80
2022-10-20T09:40:15.178Z,2.05
2022-10-20T09:42:47.308Z,1.90
2022-10-20T09:45:22.047Z,2.20
2022-10-20T09:47:54.166Z,2.60
2022-10-20T09:50:28.675Z,3.28
2022-10-20T09:52:56.743Z,2.95
2022-10-20T09:55:26.977Z,2.40
2022-10-20T09:57:55.448Z,2.88
2022-10-20T10:00:36.752Z,2.53
2022-10-20T10:03:22.570Z,1.95
2022-10-20T10:05:54.015Z,1.75
2022-10-20T10:08:22.162Z,2.03
2022-10-20T10:11:00.204Z,1.73
2022-10-20T10:13:29.547Z,2.92
2022-10-20T10:16:01.649Z,2.80
2022-10-20T10:18:29.148Z,3.08
2022-10-20T10:21:00.705Z,2.40
2022-10-20T10:23:28.929Z,1.90
2022-10-20T10:25:59.347Z,2.40
2022-10-20T10:28:33.462Z,2.08
2022-10-20T10:31:06.691Z,2.47
2022-10-20T10:33:34.199Z,3.38
2022-10-20T10:36:07.892Z,2.67
2022-10-20T10:38:36.657Z,3.20
2022-10-20T10:41:06.700Z,3.65
2022-10-20T10:43:36.679Z,2.97
2022-10-20T10:46:15.970Z,2.75
2022-10-20T10:49:03.648Z,3.00
2022-10-20T10:51:30.838Z,3.75
2022-10-20T10:54:16.702Z,3.58
2022-10-20T10:56:48.368Z,3.83
2022-10-20T10:59:15.533Z,3.80
2022-10-20T11:01:55.088Z,2.90
2022-10-20T11:04:30.267Z,3.65
2022-10-20T11:07:16.349Z,3.65
2022-10-20T11:09:52.712Z,2.83
2022-10-20T11:12:42.782Z,2.95
2022-10-20T11:15:16.171Z,3.67
2022-10-20T11:18:02.065Z,2.95
2022-10-20T11:20:52.660Z,3.17
2022-10-20T11:23:26.174Z,2.97
2022-10-20T11:25:58.454Z,2.50
2022-10-20T11:28:32.270Z,2.45
2022-10-20T11:31:00.290Z,2.45
2022-10-20T11:33:29.738Z,3.47
2022-10-20T11:36:03.822Z,2.97
2022-10-20T11:38:42.227Z,3.72
2022-10-20T11:41:16.422Z,2.90
2022-10-20T11:43:52.528Z,1.95
2022-10-20T11:46:45.953Z,1.90
2022-10-20T11:49:14.483Z,2.08
2022-10-20T11:51:44.449Z,2.67
2022-10-20T11:54:31.272Z,2.35
2022-10-20T11:57:10.625Z,1.80
2022-10-20T12:00:00.541Z,2.42
2022-10-20T12:03:06.616Z,2.75
2022-10-20T12:05:36.736Z,2.20
2022-10-20T12:08:29.019Z,2.55
2022-10-20T12:11:16.026Z,2.47
2022-10-20T12:13:52.404Z,2.63
2022-10-20T12:16:38.305Z,2.72
2022-10-20T12:19:06.578Z,3.00
2022-10-20T12:21:52.566Z,2.70
2022-10-20T12:24:35.132Z,2.45
2022-10-20T12:27:08.226Z,2.17
2022-10-20T12:29:35.417Z,3.60
2022-10-20T12:32:21.319Z,2.53
2022-10-20T12:34:49.767Z,2.67
2022-10-20T12:37:16.963Z,2.03
2022-10-20T12:39:44.661Z,2.20
2022-10-20T12:42:28.688Z,2.30
2022-10-20T12:44:56.866Z,2.28
2022-10-20T12:47:28.861Z,1.40
2022-10-20T12:49:58.992Z,2.30
2022-10-20T12:52:32.272Z,1.60
2022-10-20T12:55:19.816Z,1.85
2022-10-20T12:57:47.605Z,1.90
2022-10-20T13:00:24.113Z,1.70
2022-10-20T13:02:52.226Z,1.90
2022-10-20T13:05:19.404Z,1.90
2022-10-20T13:07:49.454Z,1.80
2022-10-20T13:10:28.595Z,1.98
2022-10-20T13:13:04.699Z,2.22
2022-10-20T13:15:38.792Z,2.30
2022-10-20T13:18:12.282Z,1.85
2022-10-20T13:20:58.399Z,1.98
2022-10-20T13:23:34.810Z,1.65
2022-10-20T13:26:06.516Z,1.58
2022-10-20T13:28:33.739Z,1.73
2022-10-20T13:31:00.898Z,1.70
2022-10-20T13:33:51.574Z,1.80
2022-10-20T13:36:28.682Z,1.70
2022-10-20T13:38:55.872Z,1.70
2022-10-20T13:41:32.404Z,1.40
2022-10-20T13:44:20.551Z,1.58
2022-10-20T13:46:58.880Z,1.48
2022-10-20T13:49:35.071Z,1.67
2022-10-20T13:52:06.761Z,2.00
2022-10-20T13:54:36.175Z,1.42
2022-10-20T13:57:04.202Z,1.48
2022-10-20T13:59:31.479Z,1.50
2022-10-20T14:02:03.873Z,1.50
2022-10-20T14:04:32.549Z,1.30
2022-10-20T14:07:04.087Z,1.10
2022-10-20T14:09:32.016Z,1.05
2022-10-20T14:12:35.190Z,0.93
2022-10-20T14:15:04.927Z,1.13
2022-10-20T14:17:32.192Z,1.20
2022-10-20T14:20:29.265Z,1.10
2022-10-20T14:22:58.196Z,1.27
2022-10-20T14:25:25.675Z,1.10
2022-10-20T14:27:54.030Z,1.20
2022-10-20T14:30:21.639Z,1.38
2022-10-20T14:32:50.143Z,1.80
2022-10-20T14:35:26.115Z,1.33
2022-10-20T14:37:53.335Z,1.38
2022-10-20T14:40:25.147Z,1.10
2022-10-20T14:42:53.294Z,1.30
2022-10-20T14:45:24.622Z,1.38
2022-10-20T14:47:52.371Z,1.08
2022-10-20T14:50:27.899Z,1.08
2022-10-20T14:52:55.193Z,1.50
2022-10-20T14:55:28.436Z,1.17
2022-10-20T14:57:56.089Z,1.60
2022-10-20T15:00:41.560Z,1.10
2022-10-20T15:03:10.517Z,1.60
2022-10-20T15:05:37.950Z,1.60
2022-10-20T15:08:29.333Z,1.27
2022-10-20T15:10:57.052Z,1.55
2022-10-20T15:13:27.748Z,1.70
2022-10-20T15:15:55.686Z,1.75
2022-10-20T15:18:26.483Z,1.98
2022-10-20T15:20:54.838Z,2.05
2022-10-20T15:23:23.004Z,1.92
2022-10-20T15:25:50.577Z,2.20
2022-10-20T15:28:23.760Z,2.13
2022-10-20T15:30:51.061Z,1.83
2022-10-20T15:33:18.281Z,1.60
2022-10-20T15:35:47.506Z,2.00
2022-10-20T15:38:15.437Z,1.83
2022-10-20T15:40:42.719Z,1.75
2022-10-20T15:43:17.827Z,1.52
2022-10-20T15:45:46.729Z,1.73
2022-10-20T15:48:13.931Z,1.70
2022-10-20T15:50:41.523Z,1.55
2022-10-20T15:53:08.834Z,1.70
2022-10-20T15:55:38.703Z,1.67
2022-10-20T15:58:06.089Z,2.80
2022-10-20T16:00:33.586Z,2.92
2022-10-20T16:03:00.982Z,2.95
2022-10-20T16:05:28.473Z,2.30
2022-10-20T16:07:56.608Z,2.15
2022-10-20T16:10:25.637Z,2.47
2022-10-20T16:12:52.976Z,2.40
2022-10-20T16:15:20.416Z,2.20
2022-10-20T16:20:19.961Z,3.13
2022-10-20T16:22:47.199Z,3.00
2022-10-20T16:25:14.523Z,3.58
2022-10-20T16:27:41.987Z,3.83
2022-10-20T16:30:09.639Z,4.22
2022-10-20T16:32:37.249Z,3.60
2022-10-20T16:35:05.553Z,3.05
2022-10-20T16:37:32.869Z,2.70
2022-10-20T16:40:00.488Z,2.38
2022-10-20T16:42:30.117Z,1.90
2022-10-20T16:44:57.960Z,2.00
2022-10-20T16:47:26.120Z,1.98
2022-10-20T16:49:53.926Z,2.00
2022-10-20T16:52:21.176Z,1.95
2022-10-20T16:54:48.391Z,2.72
2022-10-20T16:57:15.656Z,3.50
2022-10-20T16:59:45.171Z,3.30
2022-10-20T17:02:13.316Z,2.60
2022-10-20T17:04:41.471Z,2.00
2022-10-20T17:07:08.916Z,2.15
2022-10-20T17:09:36.117Z,2.50
2022-10-20T17:12:03.394Z,3.60
2022-10-20T17:14:30.590Z,3.85
2022-10-20T17:16:59.836Z,3.33
2022-10-20T17:19:27.339Z,3.10
2022-10-20T17:21:56.242Z,3.50
2022-10-20T17:24:24.465Z,3.47
2022-10-20T17:26:51.709Z,2.63
2022-10-20T17:29:23.714Z,2.50
2022-10-20T17:31:53.110Z,2.08
2022-10-20T17:34:20.334Z,2.15
2022-10-20T17:36:47.537Z,3.28
2022-10-20T17:39:16.696Z,4.65
2022-10-20T17:41:43.914Z,4.30
2022-10-20T17:44:11.251Z,4.30
2022-10-20T17:46:38.905Z,3.55
2022-10-20T17:49:06.587Z,4.50
2022-10-20T17:51:34.959Z,3.35
2022-10-20T17:54:02.905Z,2.70
2022-10-20T17:56:31.482Z,2.72
2022-10-20T17:58:59.365Z,1.98
2022-10-20T18:01:27.975Z,2.30
2022-10-20T18:03:56.665Z,2.00
2022-10-20T18:06:24.568Z,1.92
2022-10-20T18:08:54.277Z,1.95
2022-10-20T18:11:22.837Z,1.40
2022-10-20T18:13:50.067Z,1.58
2022-10-20T18:16:18.811Z,1.40
2022-10-20T18:18:46.040Z,1.80
2022-10-20T18:21:14.031Z,1.70
2022-10-20T18:23:43.771Z,2.05
2022-10-20T18:26:12.619Z,2.40
2022-10-20T18:28:42.008Z,2.33
2022-10-20T18:31:31.162Z,2.45
2022-10-20T18:34:07.062Z,2.05
2022-10-20T18:36:36.265Z,1.95
2022-10-20T18:39:05.882Z,1.70
2022-10-20T18:41:37.397Z,2.03
2022-10-20T18:44:05.793Z,2.00
2022-10-20T18:46:34.370Z,2.22
2022-10-20T18:49:07.098Z,1.88
2022-10-20T18:51:35.050Z,3.15
2022-10-20T18:54:02.441Z,2.42
2022-10-20T18:56:30.694Z,3.05
2022-10-20T18:59:02.620Z,2.63
2022-10-20T19:01:34.164Z,2.05
2022-10-20T19:04:02.009Z,1.92
2022-10-20T19:06:30.524Z,1.70
2022-10-20T19:08:59.691Z,1.50
2022-10-20T19:11:28.569Z,1.42
2022-10-20T19:13:55.865Z,1.50
2022-10-20T19:16:25.004Z,1.90
2022-10-20T19:18:53.751Z,2.10
2022-10-20T19:23:56.835Z,2.05
2022-10-20T19:26:25.486Z,2.58
2022-10-20T19:28:58.672Z,2.20
2022-10-20T19:31:29.368Z,1.80
2022-10-20T19:33:58.931Z,2.08
2022-10-20T19:36:26.762Z,2.10
2022-10-20T19:38:54.310Z,1.90
2022-10-20T19:41:21.836Z,1.77
2022-10-20T19:43:49.153Z,1.70
2022-10-20T19:46:17.996Z,1.50
2022-10-20T19:48:46.389Z,1.73
2022-10-20T19:51:14.384Z,1.70
2022-10-20T19:53:41.695Z,2.00
2022-10-20T19:56:08.989Z,2.35
2022-10-20T19:58:39.288Z,2.45
2022-10-20T20:01:09.044Z,2.88
2022-10-20T20:03:36.685Z,3.03
2022-10-20T20:06:06.052Z,2.53
2022-10-20T20:08:33.552Z,2.40
2022-10-20T20:11:01.338Z,3.70
2022-10-20T20:13:28.651Z,2.95
2022-10-20T20:15:55.930Z,4.10
2022-10-20T20:18:23.157Z,4.40
2022-10-20T20:20:50.387Z,3.47
2022-10-20T20:23:22.452Z,5.53
2022-10-20T20:25:53.300Z,4.70
2022-10-20T20:28:20.516Z,3.95
2022-10-20T20:31:08.033Z,4.40
2022-10-20T20:33:35.254Z,4.28
2022-10-20T20:36:06.734Z,3.72
2022-10-20T20:38:34.874Z,3.30
2022-10-20T20:41:03.315Z,4.53
2022-10-20T20:43:30.515Z,3.75
2022-10-20T20:46:03.179Z,3.60
2022-10-20T20:48:30.391Z,3.20
2022-10-20T20:50:58.393Z,3.30
2022-10-20T20:53:25.613Z,3.45
2022-10-20T20:55:54.185Z,2.63
2022-10-20T20:58:21.490Z,1.98
2022-10-20T21:00:48.851Z,2.35
2022-10-20T21:03:16.308Z,1.92
2022-10-20T21:05:43.650Z,2.00
2022-10-20T21:08:11.141Z,2.17
2022-10-20T21:10:38.598Z,1.83
2022-10-20T21:13:05.772Z,2.25
2022-10-20T21:15:33.025Z,2.50
2022-10-20T21:18:00.264Z,2.38
2022-10-20T21:20:27.644Z,2.45
2022-10-20T21:22:54.842Z,2.60
2022-10-20T21:25:22.012Z,2.55
2022-10-20T21:27:49.323Z,2.90
2022-10-20T21:30:16.561Z,3.78
2022-10-20T21:32:43.774Z,3.00
2022-10-20T21:35:11.028Z,2.92
2022-10-20T21:37:38.235Z,2.45
2022-10-20T21:40:05.703Z,2.30
2022-10-20T21:42:32.978Z,2.30
2022-10-20T21:45:00.244Z,1.80
2022-10-20T21:47:27.469Z,1.92
2022-10-20T21:49:54.691Z,2.60
2022-10-20T21:52:21.936Z,2.40
2022-10-20T21:54:49.156Z,3.05
2022-10-20T21:57:16.396Z,2.90
2022-10-20T21:59:46.833Z,3.45
2022-10-20T22:02:15.224Z,3.53
2022-10-20T22:04:42.444Z,3.63
2022-10-20T22:07:09.675Z,3.30
2022-10-20T22:09:36.885Z,3.03
2022-10-20T22:12:04.153Z,2.20
2022-10-20T22:14:31.491Z,2.58
2022-10-20T22:16:58.728Z,2.78
2022-10-20T22:19:26.171Z,3.33
2022-10-20T22:21:54.049Z,3.60
2022-10-20T22:24:21.412Z,3.30
2022-10-20T22:26:49.423Z,2.75
2022-10-20T22:29:16.773Z,3.00
2022-10-20T22:31:44.028Z,2.38
2022-10-20T22:34:11.757Z,1.83
2022-10-20T22:36:39.729Z,1.50
2022-10-20T22:39:07.549Z,1.95
2022-10-20T22:41:34.806Z,2.05
2022-10-20T22:44:01.981Z,1.80
2022-10-20T22:46:29.410Z,2.30
2022-10-20T22:48:56.646Z,2.40
2022-10-20T22:51:24.042Z,2.53
2022-10-20T22:53:51.288Z,2.00
2022-10-20T22:56:20.921Z,2.60
2022-10-20T22:58:48.705Z,1.70
2022-10-20T23:01:17.964Z,1.83
2022-10-20T23:03:45.781Z,1.80
2022-10-20T23:06:14.974Z,2.97
2022-10-20T23:08:43.361Z,2.90
2022-10-20T23:11:10.896Z,2.40
2022-10-20T23:13:38.230Z,2.15
2022-10-20T23:16:05.626Z,2.33
2022-10-20T23:18:33.167Z,1.85
2022-10-20T23:21:00.469Z,1.65
2022-10-20T23:23:27.722Z,1.70
2022-10-20T23:25:55.002Z,1.60
2022-10-20T23:28:22.399Z,2.97
2022-10-20T23:30:49.704Z,3.85
2022-10-20T23:33:17.047Z,3.13
2022-10-20T23:35:44.263Z,2.67
2022-10-20T23:38:11.436Z,3.03
2022-10-20T23:40:38.667Z,2.70
2022-10-20T23:43:05.882Z,2.33
2022-10-20T23:45:35.567Z,2.08
2022-10-20T23:48:05.100Z,1.77
2022-10-20T23:50:32.298Z,1.65
2022-10-20T23:52:59.506Z,1.70
2022-10-20T23:55:26.748Z,1.60
2022-10-20T23:57:53.917Z,1.20
